Time,TemperatureF,DewpointF,PressureIn,WindDirection,WindDirectionDegrees,WindSpeedMPH,WindSpeedGustMPH,Humidity,HourlyPrecipIn,Conditions,Clouds,dailyrainin,SoftwareType,DateUTC
2013-05-08 12:37:00,61.6,52.9,30.08,NE,51,2.0,0.0,73,0.00,,,0.00,WeatherTracker,2013-05-08 19:37:00,
2013-05-08 12:40:00,61.6,52.9,30.08,NE,51,0.0,4.0,73,0.00,,,0.00,WeatherTracker,2013-05-08 19:40:00,
2013-05-08 12:50:00,62.1,53.3,30.08,NE,40,0.0,2.0,73,0.00,,,0.00,WeatherTracker,2013-05-08 19:50:00,
2013-05-08 13:00:00,63.0,53.4,30.08,NE,42,1.0,2.0,71,0.00,,,0.00,WeatherTracker,2013-05-08 20:00:00,
2013-05-08 13:10:00,63.7,53.7,30.08,NE,55,0.0,3.0,70,0.00,,,0.00,WeatherTracker,2013-05-08 20:10:00,
2013-05-08 13:20:00,64.8,54.4,30.08,NE,42,1.0,3.0,69,0.00,,,0.00,WeatherTracker,2013-05-08 20:20:00,
2013-05-08 13:30:00,65.3,54.1,30.07,NE,48,0.0,3.0,67,0.00,,,0.00,WeatherTracker,2013-05-08 20:30:00,
2013-05-08 13:40:00,65.1,53.5,30.07,NE,42,0.0,3.0,66,0.00,,,0.00,WeatherTracker,2013-05-08 20:40:00,
2013-05-08 13:50:00,65.4,53.7,30.07,NE,36,0.0,3.0,66,0.00,,,0.00,WeatherTracker,2013-05-08 20:50:00,
2013-05-08 14:00:00,66.8,54.6,30.07,NE,47,1.0,3.0,65,0.00,,,0.00,WeatherTracker,2013-05-08 21:00:00,
2013-05-08 14:10:00,67.1,54.5,30.07,NE,49,3.0,3.0,64,0.00,,,0.00,WeatherTracker,2013-05-08 21:10:00,
2013-05-08 14:20:00,66.4,53.4,30.07,ENE,68,1.0,4.0,63,0.00,,,0.00,WeatherTracker,2013-05-08 21:20:00,
2013-05-08 14:30:00,66.2,54.1,30.07,NE,38,1.0,4.0,65,0.00,,,0.00,WeatherTracker,2013-05-08 21:30:00,
2013-05-08 14:40:00,66.6,54.5,30.07,NNE,33,1.0,4.0,65,0.00,,,0.00,WeatherTracker,2013-05-08 21:40:00,
2013-05-08 14:50:00,66.2,54.1,30.07,NE,38,1.0,4.0,65,0.00,,,0.00,WeatherTracker,2013-05-08 21:50:00,
2013-05-08 15:00:00,65.8,54.5,30.07,ENE,61,0.0,3.0,67,0.00,,,0.00,WeatherTracker,2013-05-08 22:00:00,
2013-05-08 15:10:00,65.4,54.6,30.06,NE,51,0.0,5.0,68,0.00,,,0.00,WeatherTracker,2013-05-08 22:10:00,
2013-05-08 15:20:00,65.5,54.7,30.06,NNE,22,1.0,3.0,68,0.00,,,0.00,WeatherTracker,2013-05-08 22:20:00,
2013-05-08 15:30:00,65.3,54.9,30.06,NE,34,1.0,4.0,69,0.00,,,0.00,WeatherTracker,2013-05-08 22:30:00,
2013-05-08 15:40:00,65.5,54.7,30.05,NNE,30,0.0,3.0,68,0.00,,,0.00,WeatherTracker,2013-05-08 22:40:00,
2013-05-08 15:50:00,65.9,54.2,30.05,ENE,57,1.0,3.0,66,0.00,,,0.00,WeatherTracker,2013-05-08 22:50:00,
2013-05-08 16:00:00,66.4,53.8,30.05,NE,48,0.0,4.0,64,0.00,,,0.00,WeatherTracker,2013-05-08 23:00:00,
2013-05-08 16:10:00,66.2,53.7,30.04,NE,36,2.0,3.0,64,0.00,,,0.00,WeatherTracker,2013-05-08 23:10:00,
2013-05-08 16:20:00,65.8,52.0,30.04,NE,56,1.0,5.0,61,0.00,,,0.00,WeatherTracker,2013-05-08 23:20:00,
2013-05-08 16:30:00,65.4,51.1,30.04,ENE,64,1.0,3.0,60,0.00,,,0.00,WeatherTracker,2013-05-08 23:30:00,
2013-05-08 16:40:00,65.5,50.8,30.04,NE,42,0.0,3.0,59,0.00,,,0.00,WeatherTracker,2013-05-08 23:40:00,
2013-05-08 16:50:00,65.2,51.0,30.04,NE,49,1.0,4.0,60,0.00,,,0.00,WeatherTracker,2013-05-08 23:50:00,
2013-05-08 17:00:00,64.7,50.9,30.04,NE,41,1.0,4.0,61,0.00,,,0.00,WeatherTracker,2013-05-09 00:00:00,
2013-05-08 17:10:00,64.7,50.9,30.04,NE,46,1.0,2.0,61,0.00,,,0.00,WeatherTracker,2013-05-09 00:10:00,
2013-05-08 17:20:00,64.7,50.9,30.04,NE,47,1.0,3.0,61,0.00,,,0.00,WeatherTracker,2013-05-09 00:20:00,
2013-05-08 17:30:00,64.4,49.8,30.04,NE,37,0.0,4.0,59,0.00,,,0.00,WeatherTracker,2013-05-09 00:30:00,
2013-05-08 17:40:00,64.4,50.2,30.05,NE,48,1.0,3.0,60,0.00,,,0.00,WeatherTracker,2013-05-09 00:40:00,
2013-05-08 17:50:00,64.0,50.3,30.05,NE,48,1.0,3.0,61,0.00,,,0.00,WeatherTracker,2013-05-09 00:50:00,
2013-05-08 18:00:00,63.6,49.9,30.05,NE,40,1.0,3.0,61,0.00,,,0.00,WeatherTracker,2013-05-09 01:00:00,
2013-05-08 18:10:00,63.2,50.0,30.05,NE,49,0.0,2.0,62,0.00,,,0.00,WeatherTracker,2013-05-09 01:10:00,
2013-05-08 18:20:00,63.0,50.2,30.05,NE,56,0.0,3.0,63,0.00,,,0.00,WeatherTracker,2013-05-09 01:20:00,
2013-05-08 18:30:00,62.6,50.2,30.05,NE,56,1.0,2.0,64,0.00,,,0.00,WeatherTracker,2013-05-09 01:30:00,
2013-05-08 18:40:00,62.0,50.5,30.05,NE,55,1.0,3.0,66,0.00,,,0.00,WeatherTracker,2013-05-09 01:40:00,
2013-05-08 18:50:00,61.2,49.7,30.05,NE,38,1.0,4.0,66,0.00,,,0.00,WeatherTracker,2013-05-09 01:50:00,
2013-05-08 19:00:00,60.5,49.9,30.05,NE,56,0.0,4.0,68,0.00,,,0.00,WeatherTracker,2013-05-09 02:00:00,
2013-05-08 19:10:00,59.6,49.8,30.05,NE,52,0.0,3.0,70,0.00,,,0.00,WeatherTracker,2013-05-09 02:10:00,
2013-05-08 19:20:00,59.0,49.6,30.06,NE,51,0.0,2.0,71,0.00,,,0.00,WeatherTracker,2013-05-09 02:20:00,
2013-05-08 19:30:00,58.4,49.8,30.06,ENE,59,2.0,3.0,73,0.00,,,0.00,WeatherTracker,2013-05-09 02:30:00,
2013-05-08 19:40:00,57.8,49.6,30.06,NE,53,0.0,3.0,74,0.00,,,0.00,WeatherTracker,2013-05-09 02:40:00,
2013-05-08 19:50:00,57.3,49.4,30.07,ENE,59,0.0,2.0,75,0.00,,,0.00,WeatherTracker,2013-05-09 02:50:00,
2013-05-08 20:00:00,56.6,49.1,30.07,NE,53,1.0,5.0,76,0.00,,,0.00,WeatherTracker,2013-05-09 03:00:00,
2013-05-08 20:10:00,55.9,49.1,30.07,NE,44,2.0,4.0,78,0.00,,,0.00,WeatherTracker,2013-05-09 03:10:00,
2013-05-08 20:20:00,55.4,49.0,30.08,NE,45,1.0,2.0,79,0.00,,,0.00,WeatherTracker,2013-05-09 03:20:00,
2013-05-08 20:30:00,55.0,48.6,30.08,NE,45,1.0,2.0,79,0.00,,,0.00,WeatherTracker,2013-05-09 03:30:00,
2013-05-08 20:40:00,54.6,48.6,30.08,NE,45,0.0,2.0,80,0.00,,,0.00,WeatherTracker,2013-05-09 03:40:00,
2013-05-08 20:50:00,54.4,48.7,30.09,NE,45,0.0,1.0,81,0.00,,,0.00,WeatherTracker,2013-05-09 03:50:00,
2013-05-08 21:00:00,54.2,48.5,30.09,NE,45,0.0,1.0,81,0.00,,,0.00,WeatherTracker,2013-05-09 04:00:00,
2013-05-08 21:10:00,54.1,48.4,30.10,NE,45,0.0,1.0,81,0.00,,,0.00,WeatherTracker,2013-05-09 04:10:00,
2013-05-08 21:20:00,54.0,48.6,30.11,NE,45,0.0,1.0,82,0.00,,,0.00,WeatherTracker,2013-05-09 04:20:00,
2013-05-08 21:30:00,53.9,48.5,30.11,NE,56,0.0,3.0,82,0.00,,,0.00,WeatherTracker,2013-05-09 04:30:00,
2013-05-08 21:40:00,53.9,48.5,30.12,NE,56,0.0,1.0,82,0.00,,,0.00,WeatherTracker,2013-05-09 04:40:00,
2013-05-08 21:50:00,53.8,48.4,30.12,NE,56,0.0,1.0,82,0.00,,,0.00,WeatherTracker,2013-05-09 04:50:00,
2013-05-08 22:00:00,53.8,48.4,30.13,NE,56,0.0,1.0,82,0.00,,,0.00,WeatherTracker,2013-05-09 05:00:00,
2013-05-08 22:10:00,53.9,48.5,30.12,NE,56,0.0,2.0,82,0.00,,,0.00,WeatherTracker,2013-05-09 05:10:00,
2013-05-08 22:20:00,54.0,48.6,30.13,NE,56,0.0,2.0,82,0.00,,,0.00,WeatherTracker,2013-05-09 05:20:00,
2013-05-08 22:30:00,54.0,48.6,30.13,NE,56,0.0,0.0,82,0.00,,,0.00,WeatherTracker,2013-05-09 05:30:00,
2013-05-08 22:40:00,54.1,48.7,30.13,NE,56,0.0,0.0,82,0.00,,,0.00,WeatherTracker,2013-05-09 05:40:00,
2013-05-08 22:50:00,54.2,48.8,30.12,NE,56,1.0,0.0,82,0.00,,,0.00,WeatherTracker,2013-05-09 05:50:00,
2013-05-08 23:00:00,54.3,48.6,30.12,NE,56,0.0,1.0,81,0.00,,,0.00,WeatherTracker,2013-05-09 06:00:00,
2013-05-08 23:10:00,54.2,48.5,30.12,NE,56,0.0,0.0,81,0.00,,,0.00,WeatherTracker,2013-05-09 06:10:00,
2013-05-08 23:20:00,54.1,48.4,30.11,NE,56,0.0,0.0,81,0.00,,,0.00,WeatherTracker,2013-05-09 06:20:00,
2013-05-08 23:30:00,54.0,48.3,30.11,NE,56,0.0,0.0,81,0.00,,,0.00,WeatherTracker,2013-05-09 06:30:00,
2013-05-08 23:40:00,53.8,48.1,30.11,NE,56,0.0,0.0,81,0.00,,,0.00,WeatherTracker,2013-05-09 06:40:00,
2013-05-08 23:50:00,53.6,48.2,30.11,NE,56,0.0,0.0,82,0.00,,,0.00,WeatherTracker,2013-05-09 06:50:00,